sensor_id;sensor_type;location;lat;lon;timestamp;P1;durP1;ratioP1;P2;durP2;ratioP2
1404;SDS011;697;51.114;6.542;2022-12-24T00:00:26;15.23;;;4.37;;
1404;SDS011;697;51.114;6.542;2022-12-24T00:02:54;13.70;;;3.87;;
1404;SDS011;697;51.114;6.542;2022-12-24T00:05:21;22.63;;;6.33;;
1404;SDS011;697;51.114;6.542;2022-12-24T00:07:47;25.63;;;4.67;;
1404;SDS011;697;51.114;6.542;2022-12-24T00:10:14;18.53;;;4.13;;
1404;SDS011;697;51.114;6.542;2022-12-24T00:12:41;26.40;;;5.00;;
1404;SDS011;697;51.114;6.542;2022-12-24T00:15:10;21.70;;;5.10;;
1404;SDS011;697;51.114;6.542;2022-12-24T00:17:37;29.10;;;4.33;;
1404;SDS011;697;51.114;6.542;2022-12-24T00:20:04;23.53;;;5.20;;
1404;SDS011;697;51.114;6.542;2022-12-24T00:22:34;26.10;;;5.90;;
1404;SDS011;697;51.114;6.542;2022-12-24T00:25:01;22.47;;;4.83;;
1404;SDS011;697;51.114;6.542;2022-12-24T00:27:28;21.37;;;5.23;;
1404;SDS011;697;51.114;6.542;2022-12-24T00:29:55;25.47;;;5.57;;
1404;SDS011;697;51.114;6.542;2022-12-24T00:32:23;22.43;;;5.47;;
1404;SDS011;697;51.114;6.542;2022-12-24T00:34:49;28.60;;;4.30;;
1404;SDS011;697;51.114;6.542;2022-12-24T00:37:16;19.20;;;5.20;;
1404;SDS011;697;51.114;6.542;2022-12-24T00:39:43;21.83;;;4.83;;
1404;SDS011;697;51.114;6.542;2022-12-24T00:42:09;16.67;;;4.23;;
1404;SDS011;697;51.114;6.542;2022-12-24T00:44:36;24.83;;;4.33;;
1404;SDS011;697;51.114;6.542;2022-12-24T00:47:03;18.87;;;4.63;;
1404;SDS011;697;51.114;6.542;2022-12-24T00:49:31;28.63;;;5.20;;
1404;SDS011;697;51.114;6.542;2022-12-24T00:51:58;25.33;;;5.23;;
1404;SDS011;697;51.114;6.542;2022-12-24T00:54:27;20.47;;;4.57;;
1404;SDS011;697;51.114;6.542;2022-12-24T00:56:53;24.83;;;5.50;;
1404;SDS011;697;51.114;6.542;2022-12-24T00:59:20;26.10;;;4.47;;
1404;SDS011;697;51.114;6.542;2022-12-24T01:01:47;23.40;;;4.33;;
1404;SDS011;697;51.114;6.542;2022-12-24T01:04:14;26.07;;;5.63;;
1404;SDS011;697;51.114;6.542;2022-12-24T01:06:59;18.17;;;4.47;;
1404;SDS011;697;51.114;6.542;2022-12-24T01:09:27;27.60;;;4.67;;
1404;SDS011;697;51.114;6.542;2022-12-24T01:11:53;22.50;;;5.20;;
1404;SDS011;697;51.114;6.542;2022-12-24T01:14:20;24.17;;;4.10;;
1404;SDS011;697;51.114;6.542;2022-12-24T01:16:47;25.10;;;5.30;;
1404;SDS011;697;51.114;6.542;2022-12-24T01:19:13;22.73;;;4.07;;
1404;SDS011;697;51.114;6.542;2022-12-24T01:21:41;21.50;;;3.93;;
1404;SDS011;697;51.114;6.542;2022-12-24T01:24:10;17.47;;;4.17;;
1404;SDS011;697;51.114;6.542;2022-12-24T01:26:39;21.90;;;4.90;;
1404;SDS011;697;51.114;6.542;2022-12-24T01:29:06;21.07;;;3.80;;
1404;SDS011;697;51.114;6.542;2022-12-24T01:31:33;28.37;;;4.93;;
1404;SDS011;697;51.114;6.542;2022-12-24T01:34:00;16.87;;;4.03;;
1404;SDS011;697;51.114;6.542;2022-12-24T01:36:26;16.03;;;4.27;;
1404;SDS011;697;51.114;6.542;2022-12-24T01:38:53;23.07;;;3.63;;
1404;SDS011;697;51.114;6.542;2022-12-24T01:41:21;17.23;;;4.57;;
1404;SDS011;697;51.114;6.542;2022-12-24T01:44:16;17.00;;;4.00;;
1404;SDS011;697;51.114;6.542;2022-12-24T01:46:44;23.40;;;5.23;;
1404;SDS011;697;51.114;6.542;2022-12-24T01:49:11;27.07;;;5.00;;
1404;SDS011;697;51.114;6.542;2022-12-24T01:51:42;23.10;;;4.20;;
1404;SDS011;697;51.114;6.542;2022-12-24T01:54:12;25.03;;;3.67;;
1404;SDS011;697;51.114;6.542;2022-12-24T01:56:45;34.33;;;7.30;;
1404;SDS011;697;51.114;6.542;2022-12-24T01:59:15;23.83;;;5.87;;
1404;SDS011;697;51.114;6.542;2022-12-24T02:01:44;16.23;;;5.00;;
1404;SDS011;697;51.114;6.542;2022-12-24T02:04:14;18.70;;;4.13;;
1404;SDS011;697;51.114;6.542;2022-12-24T02:06:54;32.60;;;5.30;;
1404;SDS011;697;51.114;6.542;2022-12-24T02:09:21;19.30;;;3.73;;
1404;SDS011;697;51.114;6.542;2022-12-24T02:11:49;26.53;;;5.60;;
1404;SDS011;697;51.114;6.542;2022-12-24T02:14:16;21.00;;;4.30;;
1404;SDS011;697;51.114;6.542;2022-12-24T02:16:45;22.47;;;4.20;;
1404;SDS011;697;51.114;6.542;2022-12-24T02:19:26;25.53;;;5.57;;
1404;SDS011;697;51.114;6.542;2022-12-24T02:22:19;25.87;;;4.47;;
1404;SDS011;697;51.114;6.542;2022-12-24T02:25:01;22.83;;;4.93;;
1404;SDS011;697;51.114;6.542;2022-12-24T02:27:45;16.93;;;4.30;;
1404;SDS011;697;51.114;6.542;2022-12-24T02:30:21;29.97;;;5.70;;
1404;SDS011;697;51.114;6.542;2022-12-24T02:32:57;23.00;;;5.07;;
1404;SDS011;697;51.114;6.542;2022-12-24T02:35:35;24.80;;;4.90;;
1404;SDS011;697;51.114;6.542;2022-12-24T02:38:10;21.77;;;3.90;;
1404;SDS011;697;51.114;6.542;2022-12-24T02:40:41;14.60;;;3.47;;
1404;SDS011;697;51.114;6.542;2022-12-24T02:43:12;25.33;;;5.33;;
1404;SDS011;697;51.114;6.542;2022-12-24T02:45:43;22.13;;;4.93;;
1404;SDS011;697;51.114;6.542;2022-12-24T02:48:12;26.23;;;4.63;;
1404;SDS011;697;51.114;6.542;2022-12-24T02:50:52;15.13;;;3.70;;
1404;SDS011;697;51.114;6.542;2022-12-24T02:53:23;25.33;;;5.37;;
1404;SDS011;697;51.114;6.542;2022-12-24T02:55:54;22.47;;;4.30;;
1404;SDS011;697;51.114;6.542;2022-12-24T02:58:33;21.67;;;5.43;;
1404;SDS011;697;51.114;6.542;2022-12-24T03:01:13;33.33;;;5.23;;
1404;SDS011;697;51.114;6.542;2022-12-24T03:03:48;16.33;;;3.50;;
1404;SDS011;697;51.114;6.542;2022-12-24T03:06:29;16.93;;;3.67;;
1404;SDS011;697;51.114;6.542;2022-12-24T03:09:04;19.10;;;3.77;;
1404;SDS011;697;51.114;6.542;2022-12-24T03:11:38;22.80;;;4.00;;
1404;SDS011;697;51.114;6.542;2022-12-24T03:14:13;14.23;;;3.40;;
1404;SDS011;697;51.114;6.542;2022-12-24T03:16:42;16.67;;;4.00;;
1404;SDS011;697;51.114;6.542;2022-12-24T03:19:10;17.33;;;4.00;;
1404;SDS011;697;51.114;6.542;2022-12-24T03:21:37;14.70;;;3.97;;
1404;SDS011;697;51.114;6.542;2022-12-24T03:24:06;16.77;;;3.90;;
1404;SDS011;697;51.114;6.542;2022-12-24T03:26:35;9.40;;;3.10;;
1404;SDS011;697;51.114;6.542;2022-12-24T03:29:03;14.87;;;3.60;;
1404;SDS011;697;51.114;6.542;2022-12-24T03:31:38;15.50;;;3.00;;
1404;SDS011;697;51.114;6.542;2022-12-24T03:34:11;15.20;;;3.90;;
1404;SDS011;697;51.114;6.542;2022-12-24T03:36:38;17.27;;;4.97;;
1404;SDS011;697;51.114;6.542;2022-12-24T03:39:05;8.30;;;3.10;;
1404;SDS011;697;51.114;6.542;2022-12-24T03:41:31;15.10;;;3.40;;
1404;SDS011;697;51.114;6.542;2022-12-24T03:43:58;14.23;;;3.20;;
1404;SDS011;697;51.114;6.542;2022-12-24T03:46:25;11.73;;;3.00;;
1404;SDS011;697;51.114;6.542;2022-12-24T03:48:52;10.23;;;3.27;;
1404;SDS011;697;51.114;6.542;2022-12-24T03:51:20;9.70;;;2.80;;
1404;SDS011;697;51.114;6.542;2022-12-24T03:53:48;15.77;;;3.07;;
1404;SDS011;697;51.114;6.542;2022-12-24T03:56:17;12.17;;;2.97;;
1404;SDS011;697;51.114;6.542;2022-12-24T03:58:44;12.60;;;2.77;;
1404;SDS011;697;51.114;6.542;2022-12-24T04:01:11;20.07;;;3.43;;
1404;SDS011;697;51.114;6.542;2022-12-24T04:03:37;10.87;;;2.03;;
1404;SDS011;697;51.114;6.542;2022-12-24T04:06:05;11.70;;;2.57;;
1404;SDS011;697;51.114;6.542;2022-12-24T04:08:35;6.43;;;2.00;;
1404;SDS011;697;51.114;6.542;2022-12-24T04:11:03;9.37;;;2.80;;
1404;SDS011;697;51.114;6.542;2022-12-24T04:13:30;11.83;;;2.77;;
1404;SDS011;697;51.114;6.542;2022-12-24T04:15:57;14.53;;;2.70;;
1404;SDS011;697;51.114;6.542;2022-12-24T04:18:24;11.07;;;2.27;;
1404;SDS011;697;51.114;6.542;2022-12-24T04:20:51;9.53;;;2.67;;
1404;SDS011;697;51.114;6.542;2022-12-24T04:23:18;4.73;;;1.77;;
1404;SDS011;697;51.114;6.542;2022-12-24T04:25:46;11.70;;;2.93;;
1404;SDS011;697;51.114;6.542;2022-12-24T04:28:13;8.00;;;2.00;;
1404;SDS011;697;51.114;6.542;2022-12-24T04:30:40;8.33;;;2.90;;
1404;SDS011;697;51.114;6.542;2022-12-24T04:33:07;14.30;;;2.63;;
1404;SDS011;697;51.114;6.542;2022-12-24T04:35:37;10.47;;;3.40;;
1404;SDS011;697;51.114;6.542;2022-12-24T04:38:05;13.47;;;2.80;;
1404;SDS011;697;51.114;6.542;2022-12-24T04:40:32;10.03;;;2.70;;
1404;SDS011;697;51.114;6.542;2022-12-24T04:43:03;13.50;;;2.77;;
1404;SDS011;697;51.114;6.542;2022-12-24T04:45:30;10.70;;;2.73;;
1404;SDS011;697;51.114;6.542;2022-12-24T04:47:57;9.70;;;2.97;;
1404;SDS011;697;51.114;6.542;2022-12-24T04:50:24;8.73;;;2.77;;
1404;SDS011;697;51.114;6.542;2022-12-24T04:52:51;13.27;;;3.80;;
1404;SDS011;697;51.114;6.542;2022-12-24T04:55:17;12.43;;;2.80;;
1404;SDS011;697;51.114;6.542;2022-12-24T04:57:44;18.23;;;3.47;;
1404;SDS011;697;51.114;6.542;2022-12-24T05:00:13;13.80;;;3.20;;
1404;SDS011;697;51.114;6.542;2022-12-24T05:02:40;15.57;;;3.03;;
1404;SDS011;697;51.114;6.542;2022-12-24T05:05:07;8.60;;;3.37;;
1404;SDS011;697;51.114;6.542;2022-12-24T05:07:34;10.63;;;2.63;;
1404;SDS011;697;51.114;6.542;2022-12-24T05:10:00;11.27;;;2.90;;
1404;SDS011;697;51.114;6.542;2022-12-24T05:12:27;12.33;;;3.73;;
1404;SDS011;697;51.114;6.542;2022-12-24T05:14:54;9.17;;;2.50;;
1404;SDS011;697;51.114;6.542;2022-12-24T05:17:22;13.00;;;3.80;;
1404;SDS011;697;51.114;6.542;2022-12-24T05:19:49;18.70;;;3.50;;
1404;SDS011;697;51.114;6.542;2022-12-24T05:22:15;19.67;;;4.20;;
1404;SDS011;697;51.114;6.542;2022-12-24T05:24:59;16.40;;;3.90;;
1404;SDS011;697;51.114;6.542;2022-12-24T05:27:43;20.57;;;4.87;;
1404;SDS011;697;51.114;6.542;2022-12-24T05:30:10;13.37;;;3.67;;
1404;SDS011;697;51.114;6.542;2022-12-24T05:32:39;13.27;;;3.27;;
1404;SDS011;697;51.114;6.542;2022-12-24T05:35:05;19.97;;;3.30;;
1404;SDS011;697;51.114;6.542;2022-12-24T05:37:33;17.37;;;3.43;;
1404;SDS011;697;51.114;6.542;2022-12-24T05:39:59;14.80;;;3.87;;
1404;SDS011;697;51.114;6.542;2022-12-24T05:42:26;15.60;;;4.33;;
1404;SDS011;697;51.114;6.542;2022-12-24T05:44:53;21.23;;;4.90;;
1404;SDS011;697;51.114;6.542;2022-12-24T05:47:19;22.97;;;4.70;;
1404;SDS011;697;51.114;6.542;2022-12-24T05:49:49;20.27;;;3.80;;
1404;SDS011;697;51.114;6.542;2022-12-24T05:52:16;26.67;;;4.20;;
1404;SDS011;697;51.114;6.542;2022-12-24T05:54:43;15.30;;;4.53;;
1404;SDS011;697;51.114;6.542;2022-12-24T05:57:09;16.33;;;4.80;;
1404;SDS011;697;51.114;6.542;2022-12-24T05:59:36;15.13;;;4.20;;
1404;SDS011;697;51.114;6.542;2022-12-24T06:02:03;13.00;;;4.70;;
1404;SDS011;697;51.114;6.542;2022-12-24T06:04:29;21.57;;;4.63;;
1404;SDS011;697;51.114;6.542;2022-12-24T06:06:57;19.60;;;4.93;;
1404;SDS011;697;51.114;6.542;2022-12-24T06:09:24;18.77;;;4.70;;
1404;SDS011;697;51.114;6.542;2022-12-24T06:11:51;21.10;;;5.20;;
1404;SDS011;697;51.114;6.542;2022-12-24T06:14:17;22.37;;;4.03;;
1404;SDS011;697;51.114;6.542;2022-12-24T06:16:44;21.13;;;5.37;;
1404;SDS011;697;51.114;6.542;2022-12-24T06:19:11;22.17;;;5.77;;
1404;SDS011;697;51.114;6.542;2022-12-24T06:21:37;24.47;;;5.53;;
1404;SDS011;697;51.114;6.542;2022-12-24T06:24:06;17.23;;;4.93;;
1404;SDS011;697;51.114;6.542;2022-12-24T06:26:33;16.80;;;4.57;;
1404;SDS011;697;51.114;6.542;2022-12-24T06:29:00;20.23;;;5.53;;
1404;SDS011;697;51.114;6.542;2022-12-24T06:31:26;34.27;;;5.57;;
1404;SDS011;697;51.114;6.542;2022-12-24T06:33:53;17.10;;;5.03;;
1404;SDS011;697;51.114;6.542;2022-12-24T06:36:21;16.27;;;4.47;;
1404;SDS011;697;51.114;6.542;2022-12-24T06:38:48;22.83;;;4.80;;
1404;SDS011;697;51.114;6.542;2022-12-24T06:41:17;23.40;;;5.13;;
1404;SDS011;697;51.114;6.542;2022-12-24T06:43:45;22.57;;;5.63;;
1404;SDS011;697;51.114;6.542;2022-12-24T06:46:13;18.17;;;5.07;;
1404;SDS011;697;51.114;6.542;2022-12-24T06:48:41;17.90;;;5.70;;
1404;SDS011;697;51.114;6.542;2022-12-24T06:51:08;25.63;;;5.17;;
1404;SDS011;697;51.114;6.542;2022-12-24T06:53:35;27.90;;;6.23;;
1404;SDS011;697;51.114;6.542;2022-12-24T06:56:02;24.10;;;5.60;;
1404;SDS011;697;51.114;6.542;2022-12-24T06:58:30;20.57;;;5.00;;
1404;SDS011;697;51.114;6.542;2022-12-24T07:00:59;22.90;;;5.93;;
1404;SDS011;697;51.114;6.542;2022-12-24T07:03:26;18.17;;;4.80;;
1404;SDS011;697;51.114;6.542;2022-12-24T07:05:53;19.47;;;5.00;;
1404;SDS011;697;51.114;6.542;2022-12-24T07:08:20;29.47;;;5.00;;
1404;SDS011;697;51.114;6.542;2022-12-24T07:10:47;24.10;;;5.63;;
1404;SDS011;697;51.114;6.542;2022-12-24T07:13:14;23.63;;;4.97;;
1404;SDS011;697;51.114;6.542;2022-12-24T07:15:43;21.10;;;4.10;;
1404;SDS011;697;51.114;6.542;2022-12-24T07:18:10;20.53;;;4.17;;
1404;SDS011;697;51.114;6.542;2022-12-24T07:20:37;27.70;;;5.97;;
1404;SDS011;697;51.114;6.542;2022-12-24T07:23:03;32.40;;;5.73;;
1404;SDS011;697;51.114;6.542;2022-12-24T07:25:30;18.13;;;4.77;;
1404;SDS011;697;51.114;6.542;2022-12-24T07:27:57;26.77;;;5.70;;
1404;SDS011;697;51.114;6.542;2022-12-24T07:30:24;21.93;;;4.37;;
1404;SDS011;697;51.114;6.542;2022-12-24T07:32:52;18.90;;;4.30;;
1404;SDS011;697;51.114;6.542;2022-12-24T07:35:19;23.77;;;5.83;;
1404;SDS011;697;51.114;6.542;2022-12-24T07:37:46;19.97;;;4.90;;
1404;SDS011;697;51.114;6.542;2022-12-24T07:40:13;25.63;;;5.57;;
1404;SDS011;697;51.114;6.542;2022-12-24T07:42:40;20.37;;;5.10;;
1404;SDS011;697;51.114;6.542;2022-12-24T07:45:07;27.63;;;5.40;;
1404;SDS011;697;51.114;6.542;2022-12-24T07:47:34;22.17;;;4.83;;
1404;SDS011;697;51.114;6.542;2022-12-24T07:50:02;20.43;;;5.87;;
1404;SDS011;697;51.114;6.542;2022-12-24T07:52:30;22.43;;;4.60;;
1404;SDS011;697;51.114;6.542;2022-12-24T07:54:57;18.50;;;4.77;;
1404;SDS011;697;51.114;6.542;2022-12-24T07:57:23;27.33;;;5.27;;
1404;SDS011;697;51.114;6.542;2022-12-24T07:59:50;21.80;;;4.93;;
1404;SDS011;697;51.114;6.542;2022-12-24T08:02:17;25.20;;;5.80;;
1404;SDS011;697;51.114;6.542;2022-12-24T08:04:43;29.50;;;5.50;;
1404;SDS011;697;51.114;6.542;2022-12-24T08:07:12;29.13;;;3.90;;
1404;SDS011;697;51.114;6.542;2022-12-24T08:09:38;24.90;;;4.57;;
1404;SDS011;697;51.114;6.542;2022-12-24T08:12:05;17.20;;;4.60;;
1404;SDS011;697;51.114;6.542;2022-12-24T08:14:32;34.27;;;5.40;;
1404;SDS011;697;51.114;6.542;2022-12-24T08:16:59;27.07;;;5.13;;
1404;SDS011;697;51.114;6.542;2022-12-24T08:19:25;18.03;;;5.77;;
1404;SDS011;697;51.114;6.542;2022-12-24T08:21:52;21.13;;;5.47;;
1404;SDS011;697;51.114;6.542;2022-12-24T08:24:20;20.53;;;4.80;;
1404;SDS011;697;51.114;6.542;2022-12-24T08:26:47;23.27;;;5.37;;
1404;SDS011;697;51.114;6.542;2022-12-24T08:29:14;22.77;;;5.50;;
1404;SDS011;697;51.114;6.542;2022-12-24T08:31:40;23.43;;;4.50;;
1404;SDS011;697;51.114;6.542;2022-12-24T08:34:07;19.43;;;5.07;;
1404;SDS011;697;51.114;6.542;2022-12-24T08:36:35;24.90;;;4.57;;
1404;SDS011;697;51.114;6.542;2022-12-24T08:39:02;18.30;;;5.00;;
1404;SDS011;697;51.114;6.542;2022-12-24T08:41:30;27.83;;;5.40;;
1404;SDS011;697;51.114;6.542;2022-12-24T08:43:57;29.10;;;5.93;;
1404;SDS011;697;51.114;6.542;2022-12-24T08:46:24;17.00;;;4.80;;
1404;SDS011;697;51.114;6.542;2022-12-24T08:48:51;35.23;;;5.00;;
1404;SDS011;697;51.114;6.542;2022-12-24T08:51:18;22.07;;;5.60;;
1404;SDS011;697;51.114;6.542;2022-12-24T08:53:45;16.80;;;5.20;;
1404;SDS011;697;51.114;6.542;2022-12-24T08:58:44;14.07;;;5.23;;
1404;SDS011;697;51.114;6.542;2022-12-24T09:01:14;28.93;;;5.37;;
1404;SDS011;697;51.114;6.542;2022-12-24T09:03:42;21.80;;;5.57;;
1404;SDS011;697;51.114;6.542;2022-12-24T09:06:10;25.57;;;5.20;;
1404;SDS011;697;51.114;6.542;2022-12-24T09:08:37;35.67;;;5.33;;
1404;SDS011;697;51.114;6.542;2022-12-24T09:11:04;23.77;;;5.37;;
1404;SDS011;697;51.114;6.542;2022-12-24T09:13:32;18.70;;;4.97;;
1404;SDS011;697;51.114;6.542;2022-12-24T09:16:01;28.33;;;5.83;;
1404;SDS011;697;51.114;6.542;2022-12-24T09:18:28;18.70;;;5.37;;
1404;SDS011;697;51.114;6.542;2022-12-24T09:20:58;26.83;;;6.43;;
1404;SDS011;697;51.114;6.542;2022-12-24T09:23:26;23.43;;;5.40;;
1404;SDS011;697;51.114;6.542;2022-12-24T09:25:52;28.53;;;6.10;;
1404;SDS011;697;51.114;6.542;2022-12-24T09:28:19;26.73;;;6.70;;
1404;SDS011;697;51.114;6.542;2022-12-24T09:30:58;26.50;;;5.77;;
1404;SDS011;697;51.114;6.542;2022-12-24T09:33:27;23.20;;;5.30;;
1404;SDS011;697;51.114;6.542;2022-12-24T09:35:56;22.77;;;5.07;;
1404;SDS011;697;51.114;6.542;2022-12-24T09:38:23;24.97;;;5.23;;
1404;SDS011;697;51.114;6.542;2022-12-24T09:40:50;27.07;;;5.50;;
1404;SDS011;697;51.114;6.542;2022-12-24T09:43:18;27.20;;;6.63;;
1404;SDS011;697;51.114;6.542;2022-12-24T09:45:48;24.93;;;5.40;;
1404;SDS011;697;51.114;6.542;2022-12-24T09:48:28;24.30;;;5.50;;
1404;SDS011;697;51.114;6.542;2022-12-24T09:50:58;24.63;;;6.50;;
1404;SDS011;697;51.114;6.542;2022-12-24T09:53:29;18.93;;;5.90;;
1404;SDS011;697;51.114;6.542;2022-12-24T09:56:03;24.80;;;6.60;;
1404;SDS011;697;51.114;6.542;2022-12-24T09:58:37;32.50;;;6.63;;
1404;SDS011;697;51.114;6.542;2022-12-24T10:01:08;23.50;;;6.27;;
1404;SDS011;697;51.114;6.542;2022-12-24T10:03:38;16.30;;;6.20;;
1404;SDS011;697;51.114;6.542;2022-12-24T10:06:05;29.43;;;6.27;;
1404;SDS011;697;51.114;6.542;2022-12-24T10:08:39;26.80;;;7.20;;
1404;SDS011;697;51.114;6.542;2022-12-24T10:11:15;22.43;;;5.70;;
1404;SDS011;697;51.114;6.542;2022-12-24T10:13:51;22.47;;;5.90;;
1404;SDS011;697;51.114;6.542;2022-12-24T10:16:34;32.87;;;6.03;;
1404;SDS011;697;51.114;6.542;2022-12-24T10:19:09;30.73;;;5.77;;
1404;SDS011;697;51.114;6.542;2022-12-24T10:21:43;26.30;;;6.00;;
1404;SDS011;697;51.114;6.542;2022-12-24T10:24:21;28.27;;;6.20;;
1404;SDS011;697;51.114;6.542;2022-12-24T10:26:52;23.73;;;4.93;;
1404;SDS011;697;51.114;6.542;2022-12-24T10:29:22;25.07;;;5.80;;
1404;SDS011;697;51.114;6.542;2022-12-24T10:31:53;33.33;;;8.17;;
1404;SDS011;697;51.114;6.542;2022-12-24T10:34:26;21.67;;;4.80;;
1404;SDS011;697;51.114;6.542;2022-12-24T10:36:55;23.60;;;4.93;;
1404;SDS011;697;51.114;6.542;2022-12-24T10:39:24;25.33;;;5.00;;
1404;SDS011;697;51.114;6.542;2022-12-24T10:41:52;28.13;;;5.97;;
1404;SDS011;697;51.114;6.542;2022-12-24T10:44:23;26.73;;;5.53;;
1404;SDS011;697;51.114;6.542;2022-12-24T10:46:52;34.20;;;6.83;;
1404;SDS011;697;51.114;6.542;2022-12-24T10:49:21;24.83;;;6.10;;
1404;SDS011;697;51.114;6.542;2022-12-24T10:51:58;21.97;;;5.20;;
1404;SDS011;697;51.114;6.542;2022-12-24T10:54:28;32.47;;;7.93;;
1404;SDS011;697;51.114;6.542;2022-12-24T10:57:02;26.73;;;5.30;;
1404;SDS011;697;51.114;6.542;2022-12-24T10:59:33;18.70;;;4.90;;
1404;SDS011;697;51.114;6.542;2022-12-24T11:02:23;24.00;;;5.83;;
1404;SDS011;697;51.114;6.542;2022-12-24T11:04:53;18.60;;;5.40;;
1404;SDS011;697;51.114;6.542;2022-12-24T11:07:21;20.10;;;5.80;;
1404;SDS011;697;51.114;6.542;2022-12-24T11:09:53;19.90;;;5.10;;
1404;SDS011;697;51.114;6.542;2022-12-24T11:12:22;19.37;;;4.93;;
1404;SDS011;697;51.114;6.542;2022-12-24T11:14:58;30.27;;;6.40;;
1404;SDS011;697;51.114;6.542;2022-12-24T11:17:27;17.23;;;4.63;;
1404;SDS011;697;51.114;6.542;2022-12-24T11:19:56;21.37;;;6.20;;
1404;SDS011;697;51.114;6.542;2022-12-24T11:22:24;21.60;;;4.73;;
1404;SDS011;697;51.114;6.542;2022-12-24T11:25:03;33.10;;;7.13;;
1404;SDS011;697;51.114;6.542;2022-12-24T11:27:41;22.67;;;5.60;;
1404;SDS011;697;51.114;6.542;2022-12-24T11:30:21;27.60;;;5.73;;
1404;SDS011;697;51.114;6.542;2022-12-24T11:33:17;27.07;;;5.03;;
1404;SDS011;697;51.114;6.542;2022-12-24T11:35:47;27.07;;;4.77;;
1404;SDS011;697;51.114;6.542;2022-12-24T11:38:19;21.43;;;5.10;;
1404;SDS011;697;51.114;6.542;2022-12-24T11:40:48;17.20;;;5.40;;
1404;SDS011;697;51.114;6.542;2022-12-24T11:43:21;21.90;;;5.20;;
1404;SDS011;697;51.114;6.542;2022-12-24T11:45:49;29.57;;;5.33;;
1404;SDS011;697;51.114;6.542;2022-12-24T11:48:26;18.90;;;5.50;;
1404;SDS011;697;51.114;6.542;2022-12-24T11:50:57;29.53;;;6.10;;
1404;SDS011;697;51.114;6.542;2022-12-24T11:53:27;18.40;;;4.87;;
1404;SDS011;697;51.114;6.542;2022-12-24T11:56:01;25.83;;;5.90;;
1404;SDS011;697;51.114;6.542;2022-12-24T11:58:34;22.10;;;5.20;;
1404;SDS011;697;51.114;6.542;2022-12-24T12:01:09;25.00;;;5.23;;
1404;SDS011;697;51.114;6.542;2022-12-24T12:03:41;21.57;;;4.77;;
1404;SDS011;697;51.114;6.542;2022-12-24T12:06:22;24.77;;;5.20;;
1404;SDS011;697;51.114;6.542;2022-12-24T12:08:53;25.13;;;5.70;;
1404;SDS011;697;51.114;6.542;2022-12-24T12:11:22;19.63;;;5.13;;
1404;SDS011;697;51.114;6.542;2022-12-24T12:13:52;21.07;;;6.00;;
1404;SDS011;697;51.114;6.542;2022-12-24T12:16:22;28.47;;;5.10;;
1404;SDS011;697;51.114;6.542;2022-12-24T12:18:55;14.73;;;5.50;;
1404;SDS011;697;51.114;6.542;2022-12-24T12:21:28;26.53;;;5.47;;
1404;SDS011;697;51.114;6.542;2022-12-24T12:24:02;31.10;;;5.73;;
1404;SDS011;697;51.114;6.542;2022-12-24T12:26:31;22.73;;;5.40;;
1404;SDS011;697;51.114;6.542;2022-12-24T12:29:00;19.67;;;5.57;;
1404;SDS011;697;51.114;6.542;2022-12-24T12:31:30;17.13;;;4.17;;
1404;SDS011;697;51.114;6.542;2022-12-24T12:34:01;20.80;;;4.50;;
1404;SDS011;697;51.114;6.542;2022-12-24T12:36:33;16.70;;;5.20;;
1404;SDS011;697;51.114;6.542;2022-12-24T12:39:03;17.53;;;4.30;;
1404;SDS011;697;51.114;6.542;2022-12-24T12:41:34;22.50;;;5.90;;
1404;SDS011;697;51.114;6.542;2022-12-24T12:44:23;24.13;;;5.03;;
1404;SDS011;697;51.114;6.542;2022-12-24T12:47:07;16.43;;;4.83;;
1404;SDS011;697;51.114;6.542;2022-12-24T12:49:45;11.27;;;3.97;;
1404;SDS011;697;51.114;6.542;2022-12-24T12:52:24;20.83;;;3.73;;
1404;SDS011;697;51.114;6.542;2022-12-24T12:55:10;19.90;;;7.13;;
1404;SDS011;697;51.114;6.542;2022-12-24T12:57:47;23.10;;;5.80;;
1404;SDS011;697;51.114;6.542;2022-12-24T13:00:17;21.30;;;4.60;;
1404;SDS011;697;51.114;6.542;2022-12-24T13:02:58;19.73;;;4.63;;
1404;SDS011;697;51.114;6.542;2022-12-24T13:05:46;20.20;;;4.40;;
1404;SDS011;697;51.114;6.542;2022-12-24T13:08:38;21.13;;;6.07;;
1404;SDS011;697;51.114;6.542;2022-12-24T13:11:15;17.30;;;4.37;;
1404;SDS011;697;51.114;6.542;2022-12-24T13:14:05;15.60;;;3.50;;
1404;SDS011;697;51.114;6.542;2022-12-24T13:16:45;23.93;;;4.57;;
1404;SDS011;697;51.114;6.542;2022-12-24T13:19:42;15.77;;;5.03;;
1404;SDS011;697;51.114;6.542;2022-12-24T13:22:20;16.10;;;4.23;;
1404;SDS011;697;51.114;6.542;2022-12-24T13:24:49;13.43;;;3.97;;
1404;SDS011;697;51.114;6.542;2022-12-24T13:27:18;17.47;;;4.80;;
1404;SDS011;697;51.114;6.542;2022-12-24T13:29:52;13.67;;;4.50;;
1404;SDS011;697;51.114;6.542;2022-12-24T13:32:39;16.80;;;5.63;;
1404;SDS011;697;51.114;6.542;2022-12-24T13:44:18;24.83;;;5.23;;
1404;SDS011;697;51.114;6.542;2022-12-24T13:46:47;21.60;;;5.37;;
1404;SDS011;697;51.114;6.542;2022-12-24T13:49:17;14.00;;;4.90;;
1404;SDS011;697;51.114;6.542;2022-12-24T13:51:46;16.80;;;4.73;;
1404;SDS011;697;51.114;6.542;2022-12-24T13:54:13;25.67;;;6.27;;
1404;SDS011;697;51.114;6.542;2022-12-24T13:56:47;21.60;;;5.03;;
1404;SDS011;697;51.114;6.542;2022-12-24T13:59:22;23.23;;;4.83;;
1404;SDS011;697;51.114;6.542;2022-12-24T14:01:55;19.87;;;5.53;;
1404;SDS011;697;51.114;6.542;2022-12-24T14:04:23;22.00;;;5.30;;
1404;SDS011;697;51.114;6.542;2022-12-24T14:06:53;27.03;;;6.10;;
1404;SDS011;697;51.114;6.542;2022-12-24T14:09:23;23.37;;;5.00;;
1404;SDS011;697;51.114;6.542;2022-12-24T14:14:55;15.57;;;5.33;;
1404;SDS011;697;51.114;6.542;2022-12-24T14:17:23;15.67;;;4.50;;
1404;SDS011;697;51.114;6.542;2022-12-24T14:19:52;23.83;;;5.13;;
1404;SDS011;697;51.114;6.542;2022-12-24T14:22:25;22.93;;;6.13;;
1404;SDS011;697;51.114;6.542;2022-12-24T14:24:54;15.17;;;4.40;;
1404;SDS011;697;51.114;6.542;2022-12-24T14:27:28;21.10;;;4.70;;
1404;SDS011;697;51.114;6.542;2022-12-24T14:30:03;14.40;;;4.47;;
1404;SDS011;697;51.114;6.542;2022-12-24T14:32:34;21.27;;;4.73;;
1404;SDS011;697;51.114;6.542;2022-12-24T14:35:06;21.90;;;5.10;;
1404;SDS011;697;51.114;6.542;2022-12-24T14:37:35;17.27;;;4.63;;
1404;SDS011;697;51.114;6.542;2022-12-24T14:40:03;18.90;;;4.47;;
1404;SDS011;697;51.114;6.542;2022-12-24T14:42:35;18.00;;;5.33;;
1404;SDS011;697;51.114;6.542;2022-12-24T14:45:12;16.30;;;5.23;;
1404;SDS011;697;51.114;6.542;2022-12-24T14:47:48;23.67;;;5.90;;
1404;SDS011;697;51.114;6.542;2022-12-24T14:50:24;22.23;;;6.63;;
1404;SDS011;697;51.114;6.542;2022-12-24T14:53:02;29.33;;;6.00;;
1404;SDS011;697;51.114;6.542;2022-12-24T14:55:43;26.20;;;6.07;;
1404;SDS011;697;51.114;6.542;2022-12-24T14:58:19;19.50;;;5.83;;
1404;SDS011;697;51.114;6.542;2022-12-24T15:00:50;20.60;;;5.40;;
1404;SDS011;697;51.114;6.542;2022-12-24T15:03:18;18.50;;;4.70;;
1404;SDS011;697;51.114;6.542;2022-12-24T15:05:49;23.57;;;4.07;;
1404;SDS011;697;51.114;6.542;2022-12-24T15:08:22;20.77;;;5.50;;
1404;SDS011;697;51.114;6.542;2022-12-24T15:10:54;25.70;;;5.13;;
1404;SDS011;697;51.114;6.542;2022-12-24T15:13:27;20.00;;;5.10;;
1404;SDS011;697;51.114;6.542;2022-12-24T15:15:58;16.70;;;4.57;;
1404;SDS011;697;51.114;6.542;2022-12-24T15:18:27;20.80;;;4.90;;
1404;SDS011;697;51.114;6.542;2022-12-24T15:20:57;19.90;;;5.63;;
1404;SDS011;697;51.114;6.542;2022-12-24T15:23:27;20.73;;;5.27;;
1404;SDS011;697;51.114;6.542;2022-12-24T15:26:06;24.43;;;5.73;;
1404;SDS011;697;51.114;6.542;2022-12-24T15:28:36;20.93;;;5.50;;
1404;SDS011;697;51.114;6.542;2022-12-24T15:31:05;22.13;;;5.43;;
1404;SDS011;697;51.114;6.542;2022-12-24T15:33:34;31.80;;;6.70;;
1404;SDS011;697;51.114;6.542;2022-12-24T15:36:01;24.20;;;5.23;;
1404;SDS011;697;51.114;6.542;2022-12-24T15:38:30;25.77;;;7.73;;
1404;SDS011;697;51.114;6.542;2022-12-24T15:40:59;17.50;;;5.80;;
1404;SDS011;697;51.114;6.542;2022-12-24T15:43:27;22.17;;;5.20;;
1404;SDS011;697;51.114;6.542;2022-12-24T15:45:56;11.20;;;4.20;;
1404;SDS011;697;51.114;6.542;2022-12-24T15:48:24;15.77;;;5.13;;